Time;durP1;ratioP1;P1;durP2;ratioP2;P2;SDS_P1;SDS_P2;PMS_P1;PMS_P2;Temp;Humidity;BMP_temperature;BMP_pressure;BME280_temperature;BME280_humidity;BME280_pressure;Samples;Min_cycle;Max_cycle;Signal;HPM_P1;HPM_P2
2023/04/04 00:01:01;;;;;;;15.40;9.07;;;-0.40;83.20;;;;;;4996470;28;20178;-89
2023/04/04 00:03:27;;;;;;;12.67;9.67;;;-0.50;83.40;;;;;;4997550;28;20178;-89
2023/04/04 00:05:52;;;;;;;13.93;9.50;;;-0.60;83.70;;;;;;4996220;28;20208;-90
2023/04/04 00:08:18;;;;;;;10.20;9.13;;;-0.60;83.90;;;;;;4999691;28;20182;-91
2023/04/04 00:10:43;;;;;;;12.90;8.70;;;-0.70;84.10;;;;;;4998528;28;20194;-89
2023/04/04 00:13:10;;;;;;;18.07;9.03;;;-0.80;84.40;;;;;;4995648;28;20180;-89
2023/04/04 00:15:35;;;;;;;13.67;9.33;;;-0.90;84.50;;;;;;4995610;28;20261;-88
2023/04/04 00:18:02;;;;;;;11.23;8.57;;;-1.00;84.80;;;;;;4995291;28;20179;-88
2023/04/04 00:20:29;;;;;;;10.13;9.10;;;-1.00;85.20;;;;;;4995629;28;20186;-89
2023/04/04 00:22:55;;;;;;;9.73;8.73;;;-1.00;85.50;;;;;;4995283;28;20174;-88
2023/04/04 00:25:20;;;;;;;12.20;8.37;;;-1.00;85.70;;;;;;4995290;28;20207;-88
2023/04/04 00:27:47;;;;;;;13.53;8.93;;;-1.00;86.00;;;;;;4996638;28;20664;-89
2023/04/04 00:30:13;;;;;;;10.30;8.53;;;-1.00;86.10;;;;;;4995055;28;20185;-88
2023/04/04 00:32:38;;;;;;;16.37;8.83;;;-1.10;86.20;;;;;;4994899;28;20178;-88
2023/04/04 00:35:04;;;;;;;11.50;8.93;;;-1.10;86.20;;;;;;4994567;28;20296;-88
2023/04/04 00:37:29;;;;;;;11.73;9.00;;;-1.10;86.30;;;;;;4995211;28;20180;-89
2023/04/04 00:39:55;;;;;;;9.93;8.80;;;-1.10;86.30;;;;;;4996082;28;20174;-88
2023/04/04 00:42:21;;;;;;;15.30;8.83;;;-1.10;86.30;;;;;;4996193;28;20170;-89
2023/04/04 00:44:47;;;;;;;12.53;9.17;;;-1.20;86.20;;;;;;4994547;28;20211;-89
2023/04/04 00:47:13;;;;;;;10.40;9.13;;;-1.20;86.30;;;;;;4995756;28;20176;-88
2023/04/04 00:49:38;;;;;;;11.30;9.13;;;-1.20;86.20;;;;;;4995792;28;20174;-88
2023/04/04 00:52:06;;;;;;;16.33;9.00;;;-1.30;86.30;;;;;;4995674;28;20178;-89
2023/04/04 00:54:33;;;;;;;10.70;8.53;;;-1.30;86.40;;;;;;4994362;28;20344;-88
2023/04/04 00:57:00;;;;;;;12.13;8.83;;;-1.40;86.40;;;;;;4993988;28;20181;-88
2023/04/04 00:59:26;;;;;;;14.63;8.03;;;-1.40;86.60;;;;;;4994423;28;20181;-88
2023/04/04 01:01:52;;;;;;;10.77;8.37;;;-1.40;86.60;;;;;;4994307;28;20174;-88
2023/04/04 01:04:18;;;;;;;9.93;8.93;;;-1.40;86.80;;;;;;4994121;28;20204;-88
2023/04/04 01:06:44;;;;;;;9.43;8.53;;;-1.40;86.90;;;;;;4994508;28;20200;-88
2023/04/04 01:09:11;;;;;;;10.53;7.87;;;-1.40;86.90;;;;;;4995311;28;20186;-88
2023/04/04 01:11:37;;;;;;;9.73;8.73;;;-1.30;86.80;;;;;;4995276;28;20178;-88
2023/04/04 01:14:03;;;;;;;10.27;8.50;;;-1.30;86.80;;;;;;4994063;28;20210;-88
2023/04/04 01:16:28;;;;;;;14.83;9.53;;;-1.30;86.60;;;;;;4995359;28;20174;-88
2023/04/04 01:18:55;;;;;;;16.00;9.27;;;-1.20;86.50;;;;;;4994078;28;20185;-88
2023/04/04 01:21:22;;;;;;;10.50;9.03;;;-1.20;86.50;;;;;;4993813;28;20178;-88
2023/04/04 01:23:58;;;;;;;11.93;8.93;;;-1.10;86.40;;;;;;4994971;28;20232;-88
2023/04/04 01:26:26;;;;;;;12.20;8.83;;;-1.00;86.30;;;;;;4993860;28;20193;-88
2023/04/04 01:28:52;;;;;;;12.93;8.73;;;-1.10;86.10;;;;;;4993749;28;20178;-88
2023/04/04 01:31:26;;;;;;;12.47;7.70;;;-1.10;85.90;;;;;;4993749;28;20174;-89
2023/04/04 01:34:08;;;;;;;10.77;8.70;;;-1.20;85.80;;;;;;4994984;28;20181;-88
2023/04/04 01:37:01;;;;;;;13.47;8.30;;;-1.10;85.90;;;;;;4993808;28;20174;-89
2023/04/04 01:39:33;;;;;;;9.27;8.27;;;-1.10;86.00;;;;;;4986045;28;20265;-88
2023/04/04 01:42:01;;;;;;;8.73;7.30;;;-1.00;86.00;;;;;;4995244;28;20181;-88
2023/04/04 01:44:27;;;;;;;11.17;8.30;;;-1.00;86.00;;;;;;4994720;28;20197;-89
2023/04/04 01:46:54;;;;;;;11.50;8.60;;;-1.10;86.00;;;;;;4994754;28;20203;-88
2023/04/04 01:49:20;;;;;;;15.13;9.20;;;-1.00;85.90;;;;;;4994769;28;20654;-89
2023/04/04 01:51:45;;;;;;;9.80;7.90;;;-1.10;85.80;;;;;;4994687;28;20175;-88
2023/04/04 01:54:11;;;;;;;9.40;8.30;;;-1.10;85.70;;;;;;4993157;28;20220;-89
2023/04/04 01:56:37;;;;;;;9.13;8.13;;;-1.10;85.60;;;;;;4993791;28;20182;-88
2023/04/04 01:59:02;;;;;;;8.77;7.97;;;-1.00;85.70;;;;;;4993168;28;20560;-88
2023/04/04 02:01:28;;;;;;;10.30;9.40;;;-1.00;85.50;;;;;;4992951;28;20183;-88
2023/04/04 02:03:53;;;;;;;12.33;9.70;;;-1.00;85.40;;;;;;4992996;28;20244;-88
2023/04/04 02:06:19;;;;;;;13.37;9.97;;;-1.00;85.00;;;;;;4993098;28;20682;-88
2023/04/04 02:08:45;;;;;;;13.33;9.67;;;-1.00;84.90;;;;;;4992221;28;20190;-87
2023/04/04 02:11:11;;;;;;;9.77;9.00;;;-0.90;84.80;;;;;;4994116;28;20175;-88
2023/04/04 02:13:40;;;;;;;17.70;9.20;;;-0.90;84.60;;;;;;4993256;28;20295;-88
2023/04/04 02:16:05;;;;;;;12.70;9.23;;;-0.90;84.50;;;;;;4993914;28;20180;-88
2023/04/04 02:18:32;;;;;;;11.07;9.63;;;-1.00;84.40;;;;;;4992817;28;20181;-88
2023/04/04 02:20:58;;;;;;;9.50;8.67;;;-1.10;84.60;;;;;;4993783;28;20200;-88
2023/04/04 02:23:23;;;;;;;11.97;9.57;;;-1.00;84.60;;;;;;4993908;28;20641;-89
2023/04/04 02:25:50;;;;;;;14.20;9.10;;;-1.00;84.60;;;;;;4992848;28;20195;-88
2023/04/04 02:28:16;;;;;;;12.20;9.07;;;-1.00;84.80;;;;;;4993420;28;20268;-88
2023/04/04 02:30:41;;;;;;;9.63;8.80;;;-1.10;84.80;;;;;;4992665;28;20207;-88
2023/04/04 02:33:07;;;;;;;9.70;8.77;;;-1.10;84.90;;;;;;4993824;28;20657;-88
2023/04/04 02:35:32;;;;;;;10.30;9.27;;;-1.10;85.00;;;;;;4992855;28;20216;-88
2023/04/04 02:37:58;;;;;;;10.80;9.13;;;-1.10;85.00;;;;;;4992506;28;20269;-88
2023/04/04 02:40:23;;;;;;;10.73;9.43;;;-1.10;85.00;;;;;;4992599;28;20183;-89
2023/04/04 02:42:49;;;;;;;13.90;10.30;;;-1.10;85.00;;;;;;4993355;28;20202;-88
2023/04/04 02:45:14;;;;;;;12.93;9.60;;;-1.00;85.00;;;;;;4992535;28;20281;-88
2023/04/04 02:47:41;;;;;;;12.93;9.80;;;-1.10;84.90;;;;;;4993746;28;20648;-88
2023/04/04 02:50:08;;;;;;;12.97;9.67;;;-1.20;84.90;;;;;;4992511;28;20184;-88
2023/04/04 02:52:33;;;;;;;11.83;9.53;;;-1.20;85.20;;;;;;4992431;28;20178;-88
2023/04/04 02:54:59;;;;;;;14.53;10.17;;;-1.20;85.40;;;;;;4992373;28;20214;-88
2023/04/04 02:57:24;;;;;;;9.90;8.63;;;-1.10;85.70;;;;;;4992716;28;20175;-88
2023/04/04 02:59:50;;;;;;;9.80;8.80;;;-1.10;85.60;;;;;;4992372;28;20175;-88
2023/04/04 03:02:15;;;;;;;12.03;9.73;;;-1.10;85.80;;;;;;4992331;28;20188;-88
2023/04/04 03:04:41;;;;;;;11.17;10.03;;;-1.10;85.70;;;;;;4992423;28;20361;-88
2023/04/04 03:07:06;;;;;;;10.63;9.50;;;-1.10;85.60;;;;;;4992439;28;20325;-88
2023/04/04 03:09:32;;;;;;;10.47;9.37;;;-1.20;85.70;;;;;;4992359;28;20187;-89
2023/04/04 03:11:58;;;;;;;9.37;8.40;;;-1.30;85.80;;;;;;4992421;28;20214;-88
2023/04/04 03:14:25;;;;;;;11.77;8.90;;;-1.40;85.90;;;;;;4992349;28;20214;-88
2023/04/04 03:16:51;;;;;;;10.27;9.20;;;-1.40;86.00;;;;;;4992318;28;20209;-88
2023/04/04 03:19:17;;;;;;;8.30;7.50;;;-1.40;86.20;;;;;;4993875;28;20190;-88
2023/04/04 03:21:42;;;;;;;9.33;8.33;;;-1.40;86.40;;;;;;4996266;28;20174;-87
2023/04/04 03:24:08;;;;;;;8.53;7.73;;;-1.50;86.70;;;;;;4997217;28;20202;-88
2023/04/04 03:26:33;;;;;;;8.07;7.37;;;-1.50;86.90;;;;;;4996107;28;20190;-88
2023/04/04 03:28:59;;;;;;;8.33;7.10;;;-1.60;87.00;;;;;;4995990;28;20175;-88
2023/04/04 03:31:24;;;;;;;9.93;7.23;;;-1.60;87.10;;;;;;4997372;28;20231;-88
2023/04/04 03:33:50;;;;;;;9.30;8.00;;;-1.60;87.20;;;;;;4995851;28;20205;-88
2023/04/04 03:36:15;;;;;;;10.77;8.27;;;-1.60;87.30;;;;;;4995898;28;20215;-89
2023/04/04 03:38:41;;;;;;;11.47;7.03;;;-1.70;87.30;;;;;;4997237;28;20177;-88
2023/04/04 03:41:07;;;;;;;11.97;7.40;;;-1.60;87.40;;;;;;4995789;28;20271;-88
2023/04/04 03:43:33;;;;;;;8.30;7.47;;;-1.60;87.50;;;;;;4995771;28;20639;-88
2023/04/04 03:46:03;;;;;;;10.63;7.50;;;-1.60;87.50;;;;;;4996026;28;20200;-88
2023/04/04 03:48:29;;;;;;;8.30;7.60;;;-1.60;87.50;;;;;;4995792;28;20189;-88
2023/04/04 03:50:58;;;;;;;9.87;7.23;;;-1.60;87.40;;;;;;4996578;28;20186;-88
2023/04/04 03:53:27;;;;;;;8.50;7.70;;;-1.60;87.50;;;;;;4995625;28;20584;-88
2023/04/04 03:55:54;;;;;;;11.53;7.97;;;-1.60;87.40;;;;;;4995915;28;20218;-88
2023/04/04 03:58:20;;;;;;;16.97;8.93;;;-1.60;87.50;;;;;;4995641;28;20182;-88
2023/04/04 04:00:46;;;;;;;9.83;7.30;;;-1.50;87.50;;;;;;4996074;28;20184;-88
2023/04/04 04:03:11;;;;;;;9.30;7.00;;;-1.60;87.40;;;;;;4996357;28;20237;-88
2023/04/04 04:05:37;;;;;;;10.77;8.20;;;-1.50;87.40;;;;;;4996628;28;20209;-88
2023/04/04 04:08:02;;;;;;;8.37;7.23;;;-1.50;87.40;;;;;;4995475;28;20232;-88
2023/04/04 04:10:28;;;;;;;7.23;6.57;;;-1.50;87.40;;;;;;4996962;28;20197;-88
2023/04/04 04:12:53;;;;;;;8.67;7.77;;;-1.60;87.40;;;;;;4995630;28;20220;-88
2023/04/04 04:15:19;;;;;;;8.87;7.07;;;-1.60;87.40;;;;;;4995206;28;20225;-88
2023/04/04 04:17:45;;;;;;;10.43;8.13;;;-1.60;87.40;;;;;;4995472;28;20171;-88
2023/04/04 04:20:11;;;;;;;8.27;7.40;;;-1.60;87.40;;;;;;4995391;28;20340;-88
2023/04/04 04:22:37;;;;;;;8.20;7.37;;;-1.60;87.40;;;;;;4996888;28;20188;-88
2023/04/04 04:25:02;;;;;;;7.07;6.47;;;-1.60;87.40;;;;;;4995774;28;20190;-88
2023/04/04 04:27:29;;;;;;;13.80;7.47;;;-1.60;87.40;;;;;;4995427;28;20201;-88
2023/04/04 04:29:55;;;;;;;9.73;7.10;;;-1.60;87.40;;;;;;4995219;28;20179;-88
2023/04/04 04:32:20;;;;;;;13.73;7.07;;;-1.60;87.40;;;;;;4994360;28;20185;-88
2023/04/04 04:34:46;;;;;;;9.97;6.80;;;-1.60;87.40;;;;;;4995026;28;20297;-88
2023/04/04 04:37:12;;;;;;;9.80;7.27;;;-1.60;87.40;;;;;;4995197;28;20181;-88
2023/04/04 04:39:37;;;;;;;10.93;7.03;;;-1.60;87.40;;;;;;4996546;28;20170;-88
2023/04/04 04:42:03;;;;;;;9.97;8.23;;;-1.60;87.40;;;;;;4995938;28;20183;-88
2023/04/04 04:44:29;;;;;;;13.30;8.63;;;-1.70;87.40;;;;;;4996311;28;20208;-88
2023/04/04 04:46:55;;;;;;;11.57;8.03;;;-1.60;87.40;;;;;;4995378;28;20244;-88
2023/04/04 04:49:21;;;;;;;9.13;8.23;;;-1.60;87.40;;;;;;4994977;28;20234;-88
2023/04/04 04:51:46;;;;;;;9.80;8.37;;;-1.60;87.50;;;;;;4996107;28;20182;-88
2023/04/04 04:54:12;;;;;;;9.60;7.37;;;-1.60;87.50;;;;;;4994811;28;20210;-88
2023/04/04 04:56:37;;;;;;;11.07;7.97;;;-1.60;87.50;;;;;;4996427;28;20179;-88
2023/04/04 04:59:03;;;;;;;8.43;7.60;;;-1.60;87.50;;;;;;4994691;28;20177;-88
2023/04/04 05:01:29;;;;;;;10.80;7.33;;;-1.50;87.50;;;;;;4995028;28;20186;-88
2023/04/04 05:03:54;;;;;;;15.50;7.30;;;-1.50;87.60;;;;;;4994448;28;20178;-88
2023/04/04 05:06:20;;;;;;;17.10;7.53;;;-1.50;87.60;;;;;;4994651;28;20182;-88
2023/04/04 05:08:46;;;;;;;10.13;7.40;;;-1.40;87.60;;;;;;4994252;28;20240;-88
2023/04/04 05:11:11;;;;;;;13.33;7.87;;;-1.50;87.60;;;;;;4995385;28;20233;-88
2023/04/04 05:13:37;;;;;;;9.93;7.37;;;-1.40;87.60;;;;;;4994491;28;20660;-88
2023/04/04 05:16:03;;;;;;;10.13;7.70;;;-1.30;87.50;;;;;;4994191;28;20194;-88
2023/04/04 05:18:29;;;;;;;9.80;8.37;;;-1.30;87.40;;;;;;4995428;28;20170;-88
2023/04/04 05:20:55;;;;;;;15.57;9.10;;;-1.30;87.30;;;;;;4994297;28;20174;-88
2023/04/04 05:23:21;;;;;;;12.30;7.40;;;-1.20;87.30;;;;;;4994605;28;20176;-88
2023/04/04 05:25:52;;;;;;;19.17;7.97;;;-1.20;87.20;;;;;;4994297;28;20193;-88
2023/04/04 05:28:20;;;;;;;17.57;8.30;;;-1.20;87.10;;;;;;4995732;28;20182;-88
2023/04/04 05:30:46;;;;;;;11.37;8.33;;;-1.20;87.10;;;;;;4995468;28;20181;-88
2023/04/04 05:33:11;;;;;;;12.87;8.27;;;-1.10;87.00;;;;;;4994313;28;20178;-88
2023/04/04 05:35:37;;;;;;;10.40;8.00;;;-1.10;87.00;;;;;;4994045;28;20214;-88
2023/04/04 05:38:03;;;;;;;13.93;8.57;;;-1.10;86.90;;;;;;4994176;28;20178;-88
2023/04/04 05:40:28;;;;;;;12.83;8.63;;;-1.00;87.00;;;;;;4993985;28;20560;-88
2023/04/04 05:42:55;;;;;;;11.07;8.53;;;-1.00;86.90;;;;;;4993245;28;20174;-88
2023/04/04 05:45:20;;;;;;;11.90;8.30;;;-1.00;87.00;;;;;;4993705;28;20674;-88
2023/04/04 05:47:47;;;;;;;8.27;7.37;;;-0.90;87.10;;;;;;4993951;28;20217;-88
2023/04/04 05:50:13;;;;;;;14.37;7.27;;;-0.80;87.20;;;;;;4995111;28;20261;-88
2023/04/04 05:52:38;;;;;;;19.90;8.17;;;-0.80;87.10;;;;;;4993365;28;20186;-88
2023/04/04 05:55:04;;;;;;;10.60;7.90;;;-0.80;86.80;;;;;;4993637;28;20647;-88
2023/04/04 05:57:31;;;;;;;11.77;8.43;;;-0.80;86.70;;;;;;4993493;28;20180;-88
2023/04/04 05:59:57;;;;;;;13.37;8.50;;;-0.90;86.70;;;;;;4993543;28;20178;-88
2023/04/04 06:02:23;;;;;;;14.97;9.93;;;-0.90;86.70;;;;;;4993478;28;20232;-88
2023/04/04 06:04:48;;;;;;;15.53;8.03;;;-0.90;86.70;;;;;;4993567;28;20244;-88
2023/04/04 06:07:15;;;;;;;10.63;8.90;;;-0.90;86.70;;;;;;4993237;28;20179;-88
2023/04/04 06:09:41;;;;;;;12.10;8.50;;;-0.90;86.90;;;;;;4993213;28;20176;-88
2023/04/04 06:12:08;;;;;;;10.23;8.43;;;-0.80;87.00;;;;;;4993359;28;20778;-88
2023/04/04 06:14:34;;;;;;;15.27;8.43;;;-0.70;87.20;;;;;;4993434;28;20238;-88
2023/04/04 06:17:00;;;;;;;12.33;8.43;;;-0.60;87.20;;;;;;4994215;28;20170;-88
2023/04/04 06:19:25;;;;;;;14.80;9.70;;;-0.50;87.30;;;;;;4994030;28;20654;-88
2023/04/04 06:21:51;;;;;;;12.73;8.63;;;-0.40;87.30;;;;;;4994045;28;20275;-89
2023/04/04 06:24:16;;;;;;;10.97;9.57;;;-0.30;87.20;;;;;;4994229;28;20205;-88
2023/04/04 06:26:42;;;;;;;13.17;9.80;;;-0.30;86.90;;;;;;4994041;28;20197;-88
2023/04/04 06:29:08;;;;;;;19.97;9.23;;;-0.20;86.50;;;;;;4994037;28;20166;-88
2023/04/04 06:31:33;;;;;;;13.07;8.70;;;-0.20;86.20;;;;;;4992728;28;20296;-89
2023/04/04 06:34:00;;;;;;;13.23;9.00;;;-0.20;85.90;;;;;;4992671;28;20228;-89
2023/04/04 06:36:26;;;;;;;15.80;8.83;;;-0.10;85.70;;;;;;4992866;28;20186;-88
2023/04/04 06:38:51;;;;;;;12.43;8.27;;;-0.10;85.70;;;;;;4994489;28;20177;-89
2023/04/04 06:41:17;;;;;;;16.23;8.37;;;0.00;85.70;;;;;;4994182;28;20642;-89
2023/04/04 06:43:45;;;;;;;21.00;8.83;;;0.00;85.70;;;;;;4994474;28;20599;-88
2023/04/04 06:46:11;;;;;;;12.03;8.70;;;0.00;85.60;;;;;;4994482;28;20176;-89
2023/04/04 06:48:37;;;;;;;11.07;8.30;;;0.00;85.60;;;;;;4993182;28;20237;-89
2023/04/04 06:51:06;;;;;;;14.97;13.47;;;0.10;85.60;;;;;;4994088;28;20595;-86
2023/04/04 06:53:33;;;;;;;13.47;12.10;;;0.10;85.50;;;;;;4992516;28;20641;-87
2023/04/04 06:55:59;;;;;;;29.60;13.17;;;0.20;85.40;;;;;;4995572;28;20782;-87
2023/04/04 06:58:24;;;;;;;14.73;13.30;;;0.30;85.50;;;;;;4996551;28;20187;-87
2023/04/04 07:00:50;;;;;;;14.67;13.23;;;0.30;85.50;;;;;;4997759;28;20623;-89
2023/04/04 07:03:15;;;;;;;14.30;12.83;;;0.40;85.60;;;;;;5001122;28;20218;-90
2023/04/04 07:05:42;;;;;;;15.53;13.90;;;0.50;85.60;;;;;;4998130;28;20227;-89
2023/04/04 07:08:08;;;;;;;17.07;12.10;;;0.50;85.60;;;;;;5001126;28;20177;-89
2023/04/04 07:10:34;;;;;;;20.43;14.20;;;0.70;85.60;;;;;;5002352;28;20257;-89
2023/04/04 07:13:00;;;;;;;15.10;13.33;;;0.70;85.40;;;;;;4997628;28;20282;-88
2023/04/04 07:15:26;;;;;;;19.30;13.80;;;0.80;85.20;;;;;;4998166;28;20221;-89
2023/04/04 07:17:52;;;;;;;16.00;14.23;;;0.90;84.90;;;;;;5002463;28;20176;-90
2023/04/04 07:20:18;;;;;;;16.20;13.10;;;1.00;84.70;;;;;;4999232;28;20292;-89
2023/04/04 07:22:44;;;;;;;24.50;14.13;;;1.10;84.70;;;;;;5005641;28;20548;-89
2023/04/04 07:25:11;;;;;;;18.53;13.97;;;1.20;84.70;;;;;;5004859;28;20204;-89
2023/04/04 07:27:36;;;;;;;16.73;13.30;;;1.30;84.60;;;;;;5004706;28;20289;-90
2023/04/04 07:30:03;;;;;;;15.13;13.83;;;1.30;84.50;;;;;;5003179;28;20351;-89
2023/04/04 07:32:29;;;;;;;15.60;13.97;;;1.20;84.00;;;;;;5003608;28;20183;-89
2023/04/04 07:34:54;;;;;;;15.47;13.57;;;1.40;84.00;;;;;;5007657;28;20292;-90
2023/04/04 07:37:20;;;;;;;20.63;14.53;;;1.50;83.70;;;;;;5009589;28;20205;-90
2023/04/04 07:39:48;;;;;;;15.63;14.23;;;1.40;82.90;;;;;;5004650;28;20166;-89
2023/04/04 07:42:22;;;;;;;15.33;13.77;;;1.50;82.70;;;;;;5000338;28;20538;-90
2023/04/04 07:44:48;;;;;;;16.80;14.63;;;1.60;82.30;;;;;;5000738;28;20208;-90
2023/04/04 07:47:15;;;;;;;21.23;14.57;;;1.60;81.80;;;;;;5000275;28;20237;-90
2023/04/04 07:49:40;;;;;;;15.00;13.47;;;1.70;82.00;;;;;;5008362;28;20172;-90
2023/04/04 07:52:07;;;;;;;16.03;14.27;;;1.80;81.00;;;;;;5011778;28;20190;-90
2023/04/04 07:54:33;;;;;;;17.27;15.47;;;1.80;79.40;;;;;;4995953;28;20217;-89
2023/04/04 07:56:58;;;;;;;18.37;16.70;;;1.90;77.00;;;;;;4995272;28;20174;-89
2023/04/04 07:59:24;;;;;;;18.03;16.37;;;1.90;75.90;;;;;;4997752;28;20170;-89
2023/04/04 08:01:50;;;;;;;17.63;15.90;;;1.90;76.60;;;;;;4999672;28;20231;-89
2023/04/04 08:04:15;;;;;;;20.47;18.47;;;1.90;76.80;;;;;;5017538;28;20286;-89
2023/04/04 08:06:41;;;;;;;22.93;17.33;;;1.90;77.20;;;;;;5012446;28;20197;-89
2023/04/04 08:09:06;;;;;;;17.53;15.33;;;2.10;78.10;;;;;;5013172;28;20182;-91
2023/04/04 08:11:32;;;;;;;17.47;15.90;;;2.10;78.00;;;;;;5011642;28;20217;-89
2023/04/04 08:13:58;;;;;;;17.47;15.93;;;2.30;78.00;;;;;;4997174;28;20205;-89
2023/04/04 08:16:23;;;;;;;16.73;15.30;;;2.30;77.90;;;;;;4995203;28;20174;-89
2023/04/04 08:18:49;;;;;;;18.10;16.47;;;2.40;76.70;;;;;;4996531;28;20170;-88
2023/04/04 08:21:14;;;;;;;17.20;15.40;;;2.30;76.00;;;;;;4996496;28;20177;-87
2023/04/04 08:23:40;;;;;;;19.40;16.63;;;2.40;76.60;;;;;;4996240;28;20173;-87
2023/04/04 08:26:05;;;;;;;17.63;16.23;;;2.60;76.70;;;;;;4994767;28;20263;-86
2023/04/04 08:28:31;;;;;;;17.37;15.70;;;2.60;75.80;;;;;;4996022;28;20213;-86
2023/04/04 08:30:56;;;;;;;18.67;17.00;;;2.70;76.20;;;;;;4994832;28;20169;-87
2023/04/04 08:33:23;;;;;;;18.10;16.67;;;2.70;74.40;;;;;;4994965;28;20267;-88
2023/04/04 08:35:49;;;;;;;17.03;15.53;;;2.80;73.30;;;;;;4994938;28;20202;-88
2023/04/04 08:38:14;;;;;;;18.83;16.73;;;3.10;73.70;;;;;;4994691;28;20182;-88
2023/04/04 08:40:40;;;;;;;19.63;17.67;;;3.10;70.60;;;;;;4995019;28;20534;-87
2023/04/04 08:43:07;;;;;;;19.43;17.83;;;3.20;69.30;;;;;;4995815;28;20185;-88
2023/04/04 08:45:34;;;;;;;18.90;17.20;;;3.30;69.70;;;;;;4996083;28;20201;-88
2023/04/04 08:48:02;;;;;;;19.67;18.17;;;3.50;69.00;;;;;;4994554;28;20185;-88
2023/04/04 08:50:29;;;;;;;18.27;16.80;;;3.60;68.00;;;;;;4995278;28;20186;-88
2023/04/04 08:52:56;;;;;;;20.90;19.07;;;3.70;67.70;;;;;;4994391;28;20633;-88
2023/04/04 08:55:22;;;;;;;19.53;18.07;;;3.80;68.70;;;;;;4994479;28;20304;-88
2023/04/04 08:57:48;;;;;;;18.97;17.43;;;3.90;69.70;;;;;;4994583;28;20206;-89
2023/04/04 09:00:15;;;;;;;18.90;17.40;;;4.00;69.90;;;;;;4994130;28;20703;-90
2023/04/04 09:03:01;;;;;;;19.53;17.83;;;4.00;68.40;;;;;;4994048;28;20174;-88
2023/04/04 09:05:27;;;;;;;18.57;16.70;;;4.30;70.00;;;;;;4993914;28;20204;-88
2023/04/04 09:07:54;;;;;;;18.30;16.77;;;4.30;69.90;;;;;;4995181;28;20208;-88
2023/04/04 09:10:20;;;;;;;19.10;17.63;;;4.40;69.30;;;;;;4993799;28;20321;-88
2023/04/04 09:12:47;;;;;;;21.23;19.00;;;4.50;68.50;;;;;;4994221;28;20179;-88
2023/04/04 09:15:13;;;;;;;21.80;19.77;;;4.60;69.00;;;;;;5000758;28;20216;-90
2023/04/04 09:17:39;;;;;;;20.30;18.17;;;4.60;67.10;;;;;;5003325;28;20207;-90
2023/04/04 09:20:32;;;;;;;19.90;18.07;;;4.80;67.30;;;;;;5000725;28;20170;-89
2023/04/04 09:22:58;;;;;;;25.13;18.70;;;4.90;67.60;;;;;;4995948;28;20268;-90
2023/04/04 09:25:23;;;;;;;21.70;19.87;;;5.30;67.30;;;;;;4998702;28;20232;-89
2023/04/04 09:27:52;;;;;;;22.80;20.90;;;5.40;66.30;;;;;;4998757;28;20205;-90
2023/04/04 09:30:18;;;;;;;23.17;21.07;;;5.40;65.90;;;;;;4997241;28;20200;-89
2023/04/04 09:32:43;;;;;;;22.53;20.80;;;5.10;62.40;;;;;;4994505;28;20185;-87
2023/04/04 09:35:11;;;;;;;22.07;20.37;;;5.20;63.50;;;;;;4994694;28;20217;-88
2023/04/04 09:37:39;;;;;;;22.60;20.90;;;5.10;62.70;;;;;;4994910;28;20191;-88
2023/04/04 09:40:06;;;;;;;21.77;20.27;;;5.10;62.10;;;;;;4994745;28;20201;-87
2023/04/04 09:42:31;;;;;;;18.67;17.13;;;5.10;60.50;;;;;;4994241;28;20237;-89
2023/04/04 09:44:57;;;;;;;19.77;15.67;;;5.00;60.40;;;;;;4995074;28;20256;-87
2023/04/04 09:47:26;;;;;;;15.30;14.00;;;5.30;60.70;;;;;;4994990;28;20549;-87
2023/04/04 09:49:56;;;;;;;15.77;14.30;;;5.40;59.60;;;;;;4993757;28;20209;-88
2023/04/04 09:52:21;;;;;;;16.50;15.20;;;5.60;60.20;;;;;;4993808;28;20178;-88
2023/04/04 09:55:00;;;;;;;16.17;14.70;;;5.50;58.10;;;;;;4993086;28;20730;-86
2023/04/04 09:57:31;;;;;;;16.30;15.00;;;5.60;58.10;;;;;;4993279;28;20181;-88
2023/04/04 09:59:58;;;;;;;17.13;15.53;;;5.60;58.40;;;;;;4993065;28;20188;-87
2023/04/04 10:02:25;;;;;;;15.80;14.53;;;5.60;57.40;;;;;;4994349;28;20221;-88
2023/04/04 10:04:52;;;;;;;16.27;14.93;;;5.80;58.80;;;;;;4994297;28;20244;-87
2023/04/04 10:07:17;;;;;;;15.43;14.13;;;5.80;57.20;;;;;;4994807;28;20186;-88
2023/04/04 10:09:45;;;;;;;17.00;15.53;;;6.00;58.80;;;;;;4994344;28;20269;-88
2023/04/04 10:12:12;;;;;;;15.60;14.33;;;6.00;55.50;;;;;;4994923;28;20193;-91
2023/04/04 10:14:37;;;;;;;17.03;15.50;;;5.80;55.80;;;;;;4996022;28;20265;-87
2023/04/04 10:17:09;;;;;;;16.80;15.03;;;6.00;55.60;;;;;;4993162;28;20174;-87
2023/04/04 10:19:36;;;;;;;15.37;14.17;;;6.10;55.60;;;;;;4993103;28;20178;-87
2023/04/04 10:22:03;;;;;;;16.77;15.53;;;6.50;57.20;;;;;;4992904;28;20182;-87
2023/04/04 10:24:28;;;;;;;18.53;16.80;;;6.60;55.00;;;;;;4992740;28;20264;-87
2023/04/04 10:26:54;;;;;;;18.43;16.90;;;6.70;52.40;;;;;;4992714;28;20630;-88
2023/04/04 10:29:20;;;;;;;18.73;17.23;;;6.70;52.60;;;;;;4992219;28;20208;-87
2023/04/04 10:31:52;;;;;;;17.23;15.77;;;6.90;55.90;;;;;;4992720;28;20178;-87
2023/04/04 10:34:30;;;;;;;17.30;15.93;;;7.00;53.70;;;;;;4993827;28;20256;-87
2023/04/04 10:37:06;;;;;;;16.40;15.30;;;7.00;54.60;;;;;;4993881;28;20647;-87
2023/04/04 10:39:53;;;;;;;16.90;15.70;;;6.80;53.80;;;;;;4992628;28;20180;-87
2023/04/04 10:42:18;;;;;;;17.37;16.00;;;6.80;54.10;;;;;;4993839;28;20162;-88
2023/04/04 10:44:45;;;;;;;16.70;15.23;;;7.30;55.90;;;;;;4992450;28;20201;-87
2023/04/04 10:47:17;;;;;;;17.10;15.70;;;7.50;54.40;;;;;;4992786;28;20213;-87
2023/04/04 10:49:44;;;;;;;17.27;15.80;;;7.30;52.90;;;;;;4992551;28;20189;-87
2023/04/04 10:52:12;;;;;;;17.47;16.10;;;7.30;51.80;;;;;;4993910;28;20177;-87
2023/04/04 10:54:39;;;;;;;17.20;15.80;;;7.20;52.20;;;;;;4992922;28;20214;-87
2023/04/04 10:57:05;;;;;;;17.40;15.90;;;7.50;52.70;;;;;;4992606;28;20674;-87
2023/04/04 10:59:31;;;;;;;17.87;16.17;;;7.10;50.20;;;;;;4992429;28;20654;-88
2023/04/04 11:01:58;;;;;;;18.03;16.53;;;7.50;52.20;;;;;;4992320;28;20281;-87
2023/04/04 11:04:41;;;;;;;17.87;16.50;;;7.30;51.20;;;;;;4992360;28;20228;-87
2023/04/04 11:07:11;;;;;;;18.50;17.00;;;7.70;50.70;;;;;;4992430;28;20552;-87
2023/04/04 11:09:48;;;;;;;18.87;17.47;;;8.00;53.70;;;;;;4992273;28;20273;-88
2023/04/04 11:12:19;;;;;;;19.97;18.20;;;8.30;48.00;;;;;;4992254;28;20201;-88
2023/04/04 11:15:06;;;;;;;18.53;17.23;;;8.30;49.20;;;;;;4992132;28;20213;-88
2023/04/04 11:17:47;;;;;;;18.90;17.33;;;8.30;49.60;;;;;;4992359;28;20536;-87
2023/04/04 11:20:30;;;;;;;19.33;17.73;;;8.40;44.90;;;;;;4993732;28;20174;-89
2023/04/04 11:23:04;;;;;;;19.13;17.73;;;8.30;47.00;;;;;;4995605;28;20242;-89
2023/04/04 11:25:31;;;;;;;18.37;16.60;;;8.20;47.70;;;;;;4993444;28;20194;-88
2023/04/04 11:27:57;;;;;;;18.57;17.03;;;7.70;46.70;;;;;;4992489;28;20201;-88
2023/04/04 11:30:24;;;;;;;18.00;16.70;;;7.20;48.30;;;;;;4992105;28;20599;-86
2023/04/04 11:32:50;;;;;;;17.60;16.20;;;7.70;48.70;;;;;;4993888;28;20178;-88
2023/04/04 11:35:16;;;;;;;18.17;16.53;;;8.20;49.50;;;;;;4992077;28;20209;-88
2023/04/04 11:38:02;;;;;;;18.70;17.30;;;8.40;47.60;;;;;;4992148;28;20178;-88
2023/04/04 11:40:40;;;;;;;18.53;17.07;;;8.60;47.90;;;;;;4992537;28;20260;-87
2023/04/04 11:43:10;;;;;;;18.73;17.40;;;8.70;46.50;;;;;;4996962;28;20162;-87
2023/04/04 11:45:37;;;;;;;18.70;17.10;;;8.50;47.10;;;;;;4995678;28;20198;-87
2023/04/04 11:48:05;;;;;;;19.00;17.17;;;7.70;46.30;;;;;;4997018;28;20177;-87
2023/04/04 11:50:37;;;;;;;18.73;16.80;;;7.80;48.00;;;;;;4996508;28;20178;-87
2023/04/04 11:53:08;;;;;;;18.47;16.93;;;7.80;49.10;;;;;;4995666;28;20178;-86
2023/04/04 11:55:41;;;;;;;18.70;17.23;;;8.00;50.30;;;;;;4995526;28;20206;-87
2023/04/04 11:58:11;;;;;;;19.97;17.93;;;7.90;48.80;;;;;;4995600;28;20170;-87
2023/04/04 12:00:38;;;;;;;19.30;17.67;;;7.80;49.20;;;;;;4995541;28;20178;-87
2023/04/04 12:03:06;;;;;;;19.37;17.70;;;8.00;48.40;;;;;;4996578;28;20309;-87
2023/04/04 12:05:32;;;;;;;19.20;17.67;;;7.80;47.10;;;;;;4996516;28;20198;-87
2023/04/04 12:08:00;;;;;;;18.67;17.00;;;8.40;50.50;;;;;;4997052;28;20220;-87
2023/04/04 12:10:28;;;;;;;20.10;18.33;;;8.80;49.70;;;;;;4995269;28;20546;-87
2023/04/04 12:12:55;;;;;;;19.43;17.63;;;8.20;47.10;;;;;;4995197;28;20667;-87
2023/04/04 12:15:22;;;;;;;19.60;17.90;;;8.60;50.60;;;;;;4995626;28;20210;-87
2023/04/04 12:17:49;;;;;;;19.73;18.13;;;8.80;46.90;;;;;;4995548;28;20615;-90
2023/04/04 12:20:16;;;;;;;19.37;17.77;;;8.80;46.00;;;;;;4995995;28;20181;-90
2023/04/04 12:22:42;;;;;;;19.57;17.83;;;8.60;47.70;;;;;;4997902;28;20177;-90
2023/04/04 12:25:08;;;;;;;18.60;17.30;;;8.10;48.90;;;;;;4995456;28;20202;-89
2023/04/04 12:27:35;;;;;;;18.57;17.07;;;8.60;50.10;;;;;;4996592;28;20189;-90
2023/04/04 12:30:03;;;;;;;18.90;17.10;;;8.90;48.20;;;;;;4996373;28;20194;-90
2023/04/04 12:32:29;;;;;;;18.57;17.07;;;9.00;48.00;;;;;;4996277;28;20181;-90
2023/04/04 12:35:00;;;;;;;18.90;17.30;;;9.60;46.70;;;;;;4996271;28;20300;-91
2023/04/04 12:37:28;;;;;;;19.60;17.83;;;9.50;44.30;;;;;;5002291;28;20179;-91